createdAt,value
2024-01-11T05:22:34.023Z,102290.47
2024-01-11T05:25:01.374Z,102290.47
2024-01-11T05:27:28.876Z,102290.78
2024-01-11T05:29:56.891Z,102293.38
2024-01-11T05:32:24.496Z,102296.25
2024-01-11T05:34:51.919Z,102288.50
2024-01-11T05:37:21.752Z,102300.63
2024-01-11T05:39:50.190Z,102295.88
2024-01-11T05:42:17.517Z,102296.06
2024-01-11T05:44:45.138Z,102296.25
2024-01-11T05:47:12.578Z,102297.72
2024-01-11T05:49:40.054Z,102299.59
2024-01-11T05:52:07.581Z,102300.28
2024-01-11T05:54:34.952Z,102304.84
2024-01-11T05:57:02.256Z,102307.41
2024-01-11T05:59:29.698Z,102303.53
2024-01-11T06:02:01.361Z,102309.50
2024-01-11T06:04:28.736Z,102308.38
2024-01-11T06:06:56.058Z,102307.25
2024-01-11T06:09:23.749Z,102300.41
2024-01-11T06:11:51.173Z,102305.59
2024-01-11T06:14:18.592Z,102297.78
2024-01-11T06:16:45.920Z,102298.97
2024-01-11T06:19:13.301Z,102303.03
2024-01-11T06:21:40.955Z,102299.66
2024-01-11T06:24:08.863Z,102293.97
2024-01-11T06:26:36.222Z,102308.66
2024-01-11T06:29:03.791Z,102310.00
2024-01-11T06:31:31.609Z,102297.03
2024-01-11T06:33:59.076Z,102292.69
2024-01-11T06:36:26.603Z,102298.91
2024-01-11T06:38:54.035Z,102302.34
2024-01-11T06:41:21.355Z,102300.38
2024-01-11T06:43:48.704Z,102309.06
2024-01-11T06:46:21.343Z,102299.19
2024-01-11T06:48:50.342Z,102298.41
2024-01-11T06:51:17.848Z,102293.91
2024-01-11T06:53:46.122Z,102289.25
2024-01-11T06:56:17.299Z,102294.59
2024-01-11T06:58:45.536Z,102287.97
2024-01-11T07:01:13.664Z,102296.03
2024-01-11T07:03:41.174Z,102296.66
2024-01-11T07:06:08.894Z,102295.16
2024-01-11T07:08:36.546Z,102290.38
2024-01-11T07:11:04.460Z,102293.38
2024-01-11T07:13:34.911Z,102289.19
2024-01-11T07:16:04.166Z,102292.63
2024-01-11T07:18:31.737Z,102288.41
2024-01-11T07:21:00.854Z,102291.84
2024-01-11T07:23:28.793Z,102289.09
2024-01-11T07:25:56.274Z,102294.88
2024-01-11T07:28:26.592Z,102295.97
2024-01-11T07:30:54.561Z,102297.34
2024-01-11T07:33:22.399Z,102297.44
2024-01-11T07:35:50.206Z,102299.19
2024-01-11T07:38:17.557Z,102292.69
2024-01-11T07:40:44.886Z,102292.53
2024-01-11T07:43:12.791Z,102291.00
2024-01-11T07:45:40.475Z,102287.94
2024-01-11T07:48:08.017Z,102294.44
2024-01-11T07:50:36.624Z,102287.81
2024-01-11T07:53:04.183Z,102289.91
2024-01-11T07:55:32.542Z,102279.66
2024-01-11T07:58:00.295Z,102279.31
2024-01-11T08:00:27.656Z,102289.88
2024-01-11T08:02:55.688Z,102287.09
2024-01-11T08:05:23.118Z,102295.38
2024-01-11T08:07:50.853Z,102293.41
2024-01-11T08:10:18.469Z,102305.41
2024-01-11T08:12:45.772Z,102302.50
2024-01-11T08:15:16.057Z,102307.28
2024-01-11T08:17:48.901Z,102302.16
2024-01-11T08:20:16.791Z,102304.28
2024-01-11T08:22:50.004Z,102300.00
2024-01-11T08:25:18.813Z,102313.63
2024-01-11T08:27:46.263Z,102311.38
2024-01-11T08:30:13.984Z,102312.94
2024-01-11T08:32:43.136Z,102301.47
2024-01-11T08:35:13.992Z,102306.94
2024-01-11T08:37:41.613Z,102312.84
2024-01-11T08:40:10.715Z,102307.66
2024-01-11T08:42:39.170Z,102302.91
2024-01-11T08:45:08.389Z,102301.19
2024-01-11T08:47:36.251Z,102299.25
2024-01-11T08:50:07.305Z,102298.09
2024-01-11T08:52:35.039Z,102297.63
2024-01-11T08:55:02.740Z,102292.00
2024-01-11T08:57:30.156Z,102299.09
2024-01-11T08:59:58.175Z,102301.56
2024-01-11T09:02:27.595Z,102295.44
2024-01-11T09:04:55.170Z,102291.78
2024-01-11T09:07:22.560Z,102295.31
2024-01-11T09:09:54.393Z,102287.16
2024-01-11T09:12:24.565Z,102288.59
2024-01-11T09:14:51.951Z,102296.59
2024-01-11T09:17:19.329Z,102290.66
2024-01-11T09:19:46.893Z,102291.53
2024-01-11T09:22:14.322Z,102288.56
2024-01-11T09:24:41.827Z,102298.75
2024-01-11T09:27:09.329Z,102297.72
2024-01-11T09:29:36.673Z,102299.22
2024-01-11T09:32:04.514Z,102297.75
2024-01-11T09:34:32.756Z,102295.13
2024-01-11T09:37:00.627Z,102291.06
2024-01-11T09:39:28.537Z,102295.03
2024-01-11T09:42:08.087Z,102290.34
2024-01-11T09:44:35.913Z,102293.59
2024-01-11T09:47:04.495Z,102289.56
2024-01-11T09:49:34.050Z,102288.84
2024-01-11T09:52:03.036Z,102286.06
2024-01-11T09:54:30.798Z,102277.28
2024-01-11T09:57:00.088Z,102276.53
2024-01-11T09:59:27.820Z,102276.22
2024-01-11T10:01:55.534Z,102271.25
2024-01-11T10:04:23.597Z,102267.50
2024-01-11T10:06:52.807Z,102262.47
2024-01-11T10:09:20.985Z,102254.38
2024-01-11T10:11:49.750Z,102252.25
2024-01-11T10:14:17.204Z,102249.13
2024-01-11T10:16:47.448Z,102239.03
2024-01-11T10:19:17.738Z,102249.41
2024-01-11T10:21:45.510Z,102246.00
2024-01-11T10:24:19.892Z,102237.53
2024-01-11T10:26:47.462Z,102229.69
2024-01-11T10:29:15.289Z,102227.25
2024-01-11T10:31:42.668Z,102223.75
2024-01-11T10:34:10.109Z,102233.47
2024-01-11T10:36:38.089Z,102225.50
2024-01-11T10:39:06.599Z,102215.66
2024-01-11T10:41:41.400Z,102211.03
2024-01-11T10:44:31.692Z,102204.84
2024-01-11T10:47:00.130Z,102201.19
2024-01-11T10:49:27.647Z,102203.06
2024-01-11T10:52:01.680Z,102199.66
2024-01-11T10:54:31.836Z,102201.44
2024-01-11T10:57:02.396Z,102191.72
2024-01-11T10:59:31.399Z,102185.63
2024-01-11T11:02:05.481Z,102179.78
2024-01-11T11:04:36.056Z,102176.25
2024-01-11T11:07:03.868Z,102176.84
2024-01-11T11:09:33.922Z,102175.41
2024-01-11T11:12:01.737Z,102163.41
2024-01-11T11:14:29.822Z,102171.09
2024-01-11T11:16:57.143Z,102161.66
2024-01-11T11:19:24.847Z,102151.72
2024-01-11T11:21:53.303Z,102154.28
2024-01-11T11:24:21.123Z,102161.34
2024-01-11T11:26:48.934Z,102152.69
2024-01-11T11:29:17.024Z,102145.34
2024-01-11T11:31:48.538Z,102136.16
2024-01-11T11:34:16.263Z,102133.16
2024-01-11T11:36:47.148Z,102130.00
2024-01-11T11:39:14.499Z,102128.97
2024-01-11T11:41:43.943Z,102122.19
2024-01-11T11:44:17.145Z,102111.81
2024-01-11T11:46:46.290Z,102109.06
2024-01-11T11:49:14.798Z,102104.19
2024-01-11T11:51:44.419Z,102103.66
2024-01-11T11:54:12.275Z,102099.19
2024-01-11T11:56:40.171Z,102093.34
2024-01-11T11:59:07.879Z,102091.88
2024-01-11T12:01:36.453Z,102091.69
2024-01-11T12:04:04.055Z,102090.38
2024-01-11T12:06:31.580Z,102077.31
2024-01-11T12:08:59.169Z,102080.75
2024-01-11T12:11:27.223Z,102064.69
2024-01-11T12:13:57.263Z,102063.06
2024-01-11T12:16:24.734Z,102065.91
2024-01-11T12:18:52.951Z,102059.22
2024-01-11T12:21:20.998Z,102047.72
2024-01-11T12:23:49.874Z,102056.59
2024-01-11T12:26:23.153Z,102043.38
2024-01-11T12:28:51.441Z,102038.41
2024-01-11T12:31:20.829Z,102035.34
2024-01-11T12:33:50.193Z,102042.94
2024-01-11T12:36:17.950Z,102038.38
2024-01-11T12:38:52.411Z,102040.34
2024-01-11T12:41:24.162Z,102033.31
2024-01-11T12:43:51.963Z,102032.31
2024-01-11T12:46:19.434Z,102029.38
2024-01-11T12:48:48.297Z,102026.53
2024-01-11T12:51:21.364Z,102015.31
2024-01-11T12:53:50.590Z,102016.19
2024-01-11T12:56:20.170Z,102017.41
2024-01-11T12:58:48.318Z,102012.59
2024-01-11T13:01:16.075Z,102009.56
2024-01-11T13:03:48.647Z,102003.75
2024-01-11T13:06:18.470Z,101988.84
2024-01-11T13:08:46.069Z,101992.78
2024-01-11T13:11:15.256Z,101987.00
2024-01-11T13:13:42.990Z,101972.50
2024-01-11T13:16:13.583Z,101978.31
2024-01-11T13:18:41.533Z,101971.91
2024-01-11T13:21:09.304Z,101979.16
2024-01-11T13:23:38.945Z,101978.16
2024-01-11T13:26:07.615Z,101971.19
2024-01-11T13:28:35.795Z,101977.88
2024-01-11T13:31:03.633Z,101963.94
2024-01-11T13:33:31.846Z,101969.91
2024-01-11T13:36:00.176Z,101966.66
2024-01-11T13:38:28.870Z,101961.09
2024-01-11T13:40:56.248Z,101963.09
2024-01-11T13:43:24.046Z,101960.97
2024-01-11T13:45:51.394Z,101955.94
2024-01-11T13:48:19.177Z,101954.13
2024-01-11T13:50:46.669Z,101952.53
2024-01-11T13:53:14.123Z,101945.28
2024-01-11T13:55:42.237Z,101947.13
2024-01-11T13:58:09.752Z,101944.72
2024-01-11T14:00:37.368Z,101939.59
2024-01-11T14:03:06.656Z,101940.47
2024-01-11T14:05:34.747Z,101937.19
2024-01-11T14:08:02.716Z,101932.63
2024-01-11T14:10:30.187Z,101940.75
2024-01-11T14:12:57.917Z,101938.00
2024-01-11T14:15:25.702Z,101941.16
2024-01-11T14:17:53.723Z,101932.38
2024-01-11T14:20:22.178Z,101942.75
2024-01-11T14:22:51.592Z,101933.34
2024-01-11T14:25:20.467Z,101928.78
2024-01-11T14:27:50.962Z,101929.91
2024-01-11T14:30:18.665Z,101926.66
2024-01-11T14:32:46.857Z,101922.38
2024-01-11T14:35:14.803Z,101929.22
2024-01-11T14:37:43.097Z,101920.38
2024-01-11T14:40:11.845Z,101918.41
2024-01-11T14:42:39.941Z,101909.88
2024-01-11T14:45:08.471Z,101916.56
2024-01-11T14:47:36.615Z,101914.44
2024-01-11T14:50:05.522Z,101917.09
2024-01-11T14:52:33.386Z,101920.78
2024-01-11T14:55:01.018Z,101919.78
2024-01-11T14:57:28.356Z,101912.09
2024-01-11T14:59:55.837Z,101916.75
2024-01-11T15:02:23.326Z,101913.78
2024-01-11T15:04:50.815Z,101908.22
2024-01-11T15:07:18.573Z,101908.47
2024-01-11T15:09:45.900Z,101911.47
2024-01-11T15:12:13.802Z,101899.63
2024-01-11T15:14:41.114Z,101900.94
2024-01-11T15:17:09.328Z,101899.22
2024-01-11T15:19:36.809Z,101894.97
2024-01-11T15:22:04.373Z,101904.59
2024-01-11T15:24:33.579Z,101893.94
2024-01-11T15:27:03.093Z,101890.13
2024-01-11T15:29:30.461Z,101894.03
2024-01-11T15:31:58.386Z,101895.44
2024-01-11T15:34:25.824Z,101892.56
2024-01-11T15:36:54.194Z,101891.84
2024-01-11T15:39:27.397Z,101895.72
2024-01-11T15:41:58.310Z,101895.38
2024-01-11T15:44:30.720Z,101904.94
2024-01-11T15:46:58.264Z,101903.53
2024-01-11T15:49:26.128Z,101905.66
2024-01-11T15:51:53.776Z,101905.75
2024-01-11T15:54:22.172Z,101905.25
2024-01-11T15:56:50.219Z,101901.72
2024-01-11T15:59:18.751Z,101911.97
2024-01-11T16:01:56.246Z,101924.88
2024-01-11T16:04:31.197Z,101922.22
2024-01-11T16:06:59.289Z,101927.72
2024-01-11T16:09:26.837Z,101916.41
2024-01-11T16:12:02.123Z,101914.28
2024-01-11T16:14:32.631Z,101910.13
2024-01-11T16:17:03.737Z,101921.63
2024-01-11T16:19:32.392Z,101921.59
2024-01-11T16:21:59.765Z,101923.41
2024-01-11T16:24:28.190Z,101922.69
2024-01-11T16:26:55.566Z,101923.19
2024-01-11T16:29:23.348Z,101929.44
2024-01-11T16:31:51.575Z,101926.53
2024-01-11T16:34:18.984Z,101935.59
2024-01-11T16:36:46.611Z,101927.25
2024-01-11T16:39:13.960Z,101927.19
2024-01-11T16:41:43.819Z,101937.63
2024-01-11T16:44:11.730Z,101940.16
2024-01-11T16:46:39.030Z,101937.94
2024-01-11T16:49:06.747Z,101920.03
2024-01-11T16:51:34.069Z,101912.22
2024-01-11T16:54:01.531Z,101918.56
2024-01-11T16:56:29.024Z,101924.94
2024-01-11T16:58:56.362Z,101911.97
2024-01-11T17:01:24.065Z,101914.28
2024-01-11T17:03:57.992Z,101921.88
2024-01-11T17:06:25.506Z,101922.50
2024-01-11T17:08:54.060Z,101910.97
2024-01-11T17:11:21.457Z,101905.13
2024-01-11T17:13:48.718Z,101905.84
2024-01-11T17:16:21.258Z,101902.69
2024-01-11T17:18:50.069Z,101902.69
2024-01-11T17:21:17.891Z,101902.81
2024-01-11T17:23:45.378Z,101907.22
2024-01-11T17:26:13.107Z,101908.34
2024-01-11T17:28:40.948Z,101918.63
2024-01-11T17:31:08.380Z,101911.88
2024-01-11T17:33:35.936Z,101913.34
2024-01-11T17:36:04.056Z,101905.53
2024-01-11T17:38:31.889Z,101903.56
2024-01-11T17:40:59.325Z,101898.53
2024-01-11T17:43:26.675Z,101904.31
2024-01-11T17:45:54.693Z,101913.22
2024-01-11T17:48:22.328Z,101927.06
2024-01-11T17:50:50.052Z,101922.91
2024-01-11T17:53:17.882Z,101921.56
2024-01-11T17:55:45.993Z,101915.56
2024-01-11T17:58:13.877Z,101911.03
2024-01-11T18:00:41.658Z,101912.25
2024-01-11T18:03:09.086Z,101910.66
2024-01-11T18:05:36.780Z,101917.97
2024-01-11T18:08:04.627Z,101905.41
2024-01-11T18:10:38.358Z,101896.50
2024-01-11T18:13:05.780Z,101910.41
2024-01-11T18:15:33.214Z,101916.03
2024-01-11T18:18:01.276Z,101913.22
2024-01-11T18:20:29.278Z,101915.16
2024-01-11T18:22:56.929Z,101918.44
2024-01-11T18:25:24.909Z,101921.97
2024-01-11T18:27:52.446Z,101918.59
2024-01-11T18:30:19.893Z,101916.88
2024-01-11T18:32:47.936Z,101921.84
2024-01-11T18:35:16.017Z,101933.97
2024-01-11T18:37:43.378Z,101931.28
2024-01-11T18:40:11.180Z,101932.47
2024-01-11T18:42:38.505Z,101942.78
2024-01-11T18:45:07.022Z,101937.03
2024-01-11T18:47:34.516Z,101939.84
2024-01-11T18:50:03.700Z,101953.78
2024-01-11T18:52:32.069Z,101952.69
2024-01-11T18:55:08.012Z,101952.47
2024-01-11T18:57:40.888Z,101954.13
2024-01-11T19:00:11.197Z,101960.47
2024-01-11T19:02:38.806Z,101959.84
2024-01-11T19:05:06.844Z,101952.66
2024-01-11T19:07:34.743Z,101958.06
2024-01-11T19:10:02.144Z,101954.66
2024-01-11T19:12:30.676Z,101954.47
2024-01-11T19:14:58.160Z,101950.44
2024-01-11T19:17:25.754Z,101951.75
2024-01-11T19:19:53.310Z,101958.66
2024-01-11T19:22:20.731Z,101955.88
2024-01-11T19:24:48.174Z,101955.00
2024-01-11T19:27:15.847Z,101952.97
2024-01-11T19:29:43.692Z,101941.03
2024-01-11T19:32:13.112Z,101944.94
2024-01-11T19:34:40.932Z,101957.47
2024-01-11T19:37:08.430Z,101959.84
2024-01-11T19:39:36.366Z,101960.19
2024-01-11T19:42:03.823Z,101959.16
2024-01-11T19:44:31.392Z,101956.25
2024-01-11T19:46:59.254Z,101956.13
2024-01-11T19:49:26.748Z,101952.78
2024-01-11T19:51:54.226Z,101957.47
2024-01-11T19:54:21.583Z,101958.38
2024-01-11T19:56:48.982Z,101964.41
2024-01-11T19:59:17.636Z,101960.03
2024-01-11T20:01:45.228Z,101967.25
2024-01-11T20:04:12.663Z,101964.44
2024-01-11T20:06:40.135Z,101966.25
2024-01-11T20:09:07.572Z,101967.00
2024-01-11T20:11:35.513Z,101969.03
2024-01-11T20:14:03.161Z,101977.22
2024-01-11T20:16:30.558Z,101972.59
2024-01-11T20:18:58.575Z,101970.91
2024-01-11T20:21:26.026Z,101965.53
2024-01-11T20:23:53.608Z,101970.16
2024-01-11T20:26:24.717Z,101968.94
2024-01-11T20:28:53.213Z,101973.88
2024-01-11T20:31:22.031Z,101971.88
2024-01-11T20:33:49.747Z,101965.88
2024-01-11T20:36:17.200Z,101968.22
2024-01-11T20:38:44.665Z,101979.50
2024-01-11T20:41:14.841Z,101976.59
2024-01-11T20:43:42.815Z,101983.13
2024-01-11T20:46:10.260Z,101983.03
2024-01-11T20:48:39.761Z,101970.25
2024-01-11T20:51:09.229Z,101968.97
2024-01-11T20:53:36.562Z,101980.22
2024-01-11T20:56:04.143Z,101981.63
2024-01-11T20:58:31.561Z,101984.72
2024-01-11T21:00:58.854Z,101985.28
2024-01-11T21:03:26.331Z,101971.53
2024-01-11T21:05:55.544Z,101979.38
2024-01-11T21:08:23.448Z,101986.44
2024-01-11T21:10:52.232Z,101983.66
2024-01-11T21:13:21.094Z,101978.81
2024-01-11T21:15:48.466Z,101980.31
2024-01-11T21:18:17.172Z,101987.91
2024-01-11T21:20:44.755Z,101991.53
2024-01-11T21:23:12.198Z,101989.94
2024-01-11T21:25:39.638Z,101986.94
2024-01-11T21:28:08.092Z,101989.91
2024-01-11T21:30:35.485Z,101986.63
2024-01-11T21:33:04.101Z,101991.25
2024-01-11T21:35:31.693Z,101996.56
2024-01-11T21:37:59.059Z,101992.69
2024-01-11T21:40:26.903Z,101989.19
2024-01-11T21:42:54.990Z,101991.75
2024-01-11T21:45:22.341Z,102000.09
2024-01-11T21:47:52.308Z,102002.50
2024-01-11T21:50:19.999Z,101996.53
2024-01-11T21:52:47.381Z,101997.44
2024-01-11T21:55:15.159Z,101999.94
2024-01-11T21:57:42.421Z,101994.81
2024-01-11T22:00:10.088Z,101998.25
2024-01-11T22:02:38.530Z,101998.25
2024-01-11T22:05:06.506Z,102004.94
2024-01-11T22:07:33.863Z,101997.00
2024-01-11T22:10:01.946Z,102003.41
2024-01-11T22:12:29.234Z,102010.56
2024-01-11T22:14:57.278Z,102006.63
2024-01-11T22:17:24.710Z,102007.22
2024-01-11T22:19:52.135Z,102001.16
2024-01-11T22:22:19.558Z,102000.50
2024-01-11T22:24:46.859Z,101999.84
2024-01-11T22:27:14.136Z,102003.94
2024-01-11T22:29:41.425Z,102006.41
2024-01-11T22:32:08.764Z,102008.41
2024-01-11T22:34:36.148Z,102012.94
2024-01-11T22:37:03.793Z,102017.44
2024-01-11T22:39:31.110Z,102011.13
2024-01-11T22:41:58.778Z,102013.50
2024-01-11T22:44:26.188Z,102020.97
2024-01-11T22:46:55.069Z,102023.59
2024-01-11T22:49:22.771Z,102021.25
2024-01-11T22:51:50.112Z,102016.34
2024-01-11T22:54:17.428Z,102019.13
2024-01-11T22:56:44.826Z,102017.22
2024-01-11T22:59:13.027Z,102014.75
2024-01-11T23:01:43.929Z,102002.09
2024-01-11T23:04:11.253Z,102003.72
2024-01-11T23:06:38.680Z,102014.31
2024-01-11T23:09:11.076Z,102008.41
2024-01-11T23:11:38.698Z,102003.56
2024-01-11T23:14:06.521Z,102005.25
2024-01-11T23:16:33.819Z,102009.16
2024-01-11T23:19:01.344Z,102007.00
2024-01-11T23:21:29.194Z,102014.41
2024-01-11T23:23:56.516Z,102010.91
2024-01-11T23:26:23.895Z,102008.31
2024-01-11T23:28:52.252Z,101994.09
2024-01-11T23:31:19.551Z,102001.22
2024-01-11T23:33:47.054Z,101999.41
2024-01-11T23:36:14.740Z,101999.56
2024-01-11T23:38:42.218Z,102002.28
2024-01-11T23:41:09.604Z,101995.97
2024-01-11T23:43:37.541Z,101998.69
2024-01-11T23:46:05.095Z,101997.41
2024-01-11T23:48:34.346Z,101991.97
2024-01-11T23:51:02.034Z,101996.06
2024-01-11T23:53:29.727Z,101988.44
2024-01-11T23:55:57.083Z,101995.66
2024-01-11T23:58:24.400Z,101995.31
